createdAt,value
2023-05-10T00:02:05.338Z,16.80
2023-05-10T00:04:33.768Z,16.90
2023-05-10T00:07:02.495Z,16.90
2023-05-10T00:09:30.962Z,16.90
2023-05-10T00:12:00.815Z,16.80
2023-05-10T00:14:29.221Z,16.80
2023-05-10T00:16:57.708Z,16.80
2023-05-10T00:19:26.254Z,16.80
2023-05-10T00:21:54.706Z,16.80
2023-05-10T00:24:23.114Z,16.80
2023-05-10T00:26:51.597Z,16.80
2023-05-10T00:29:21.725Z,16.80
2023-05-10T00:31:50.179Z,16.80
2023-05-10T00:34:18.684Z,16.80
2023-05-10T00:36:47.089Z,16.80
2023-05-10T00:39:15.597Z,16.80
2023-05-10T00:41:44.018Z,16.80
2023-05-10T00:44:12.421Z,16.90
2023-05-10T00:46:42.447Z,16.90
2023-05-10T00:49:10.893Z,16.90
2023-05-10T00:51:39.324Z,16.90
2023-05-10T00:54:07.809Z,16.80
2023-05-10T00:56:36.399Z,16.80
2023-05-10T00:59:04.877Z,16.90
2023-05-10T01:01:33.435Z,16.80
2023-05-10T01:04:04.111Z,16.80
2023-05-10T01:06:33.370Z,16.80
2023-05-10T01:09:01.768Z,16.70
2023-05-10T01:11:30.222Z,16.70
2023-05-10T01:13:59.583Z,16.70
2023-05-10T01:16:28.842Z,16.60
2023-05-10T01:18:57.381Z,16.60
2023-05-10T01:21:40.571Z,16.70
2023-05-10T01:24:16.042Z,16.70
2023-05-10T01:27:03.435Z,16.70
2023-05-10T01:29:44.722Z,16.60
2023-05-10T01:32:23.007Z,16.60
2023-05-10T01:34:56.732Z,16.60
2023-05-10T01:37:31.187Z,16.60
2023-05-10T01:40:02.490Z,16.60
2023-05-10T01:42:34.870Z,16.50
2023-05-10T01:45:09.714Z,16.50
2023-05-10T01:47:41.059Z,16.50
2023-05-10T01:50:12.248Z,16.60
2023-05-10T01:52:43.171Z,16.60
2023-05-10T01:55:14.615Z,16.60
2023-05-10T01:57:44.579Z,16.60
2023-05-10T02:00:14.332Z,16.60
2023-05-10T02:02:46.704Z,16.60
2023-05-10T02:05:15.666Z,16.60
2023-05-10T02:07:44.313Z,16.60
2023-05-10T02:10:12.939Z,16.60
2023-05-10T02:12:44.193Z,16.60
2023-05-10T02:15:13.688Z,16.60
2023-05-10T02:17:42.495Z,16.60
2023-05-10T02:20:13.934Z,16.60
2023-05-10T02:22:42.749Z,16.40
2023-05-10T02:25:12.535Z,16.50
2023-05-10T02:27:41.477Z,16.50
2023-05-10T02:30:10.308Z,16.50
2023-05-10T02:32:39.002Z,16.50
2023-05-10T02:35:08.225Z,16.50
2023-05-10T02:37:38.825Z,16.50
2023-05-10T02:40:08.329Z,16.50
2023-05-10T02:42:37.986Z,16.40
2023-05-10T02:45:09.533Z,16.30
2023-05-10T02:47:37.991Z,16.30
2023-05-10T02:50:06.965Z,16.30
2023-05-10T02:52:41.563Z,16.30
2023-05-10T02:55:11.524Z,16.20
2023-05-10T02:57:43.061Z,16.20
2023-05-10T03:00:11.950Z,16.10
2023-05-10T03:02:40.373Z,16.10
2023-05-10T03:05:09.149Z,16.10
2023-05-10T03:07:37.733Z,16.10
2023-05-10T03:10:08.298Z,16.10
2023-05-10T03:12:44.270Z,16.10
2023-05-10T03:15:14.501Z,16.10
2023-05-10T03:17:48.372Z,16.10
2023-05-10T03:20:22.834Z,16.10
2023-05-10T03:22:53.359Z,16.10
2023-05-10T03:25:23.660Z,16.10
2023-05-10T03:27:52.312Z,16.10
2023-05-10T03:30:21.644Z,16.10
2023-05-10T03:32:50.044Z,16.10
2023-05-10T03:35:18.605Z,16.10
2023-05-10T03:37:47.084Z,16.10
2023-05-10T03:40:15.774Z,16.10
2023-05-10T03:42:45.858Z,16.20
2023-05-10T03:45:14.302Z,16.20
2023-05-10T03:47:42.833Z,16.10
2023-05-10T03:50:11.505Z,16.10
2023-05-10T03:52:40.194Z,16.10
2023-05-10T03:55:08.981Z,16.10
2023-05-10T03:57:37.562Z,16.20
2023-05-10T04:00:08.166Z,16.20
2023-05-10T04:02:36.678Z,16.20
2023-05-10T04:05:05.327Z,16.30
2023-05-10T04:07:33.801Z,16.30
2023-05-10T04:10:02.272Z,16.30
2023-05-10T04:12:30.685Z,16.30
2023-05-10T04:14:59.123Z,16.40
2023-05-10T04:17:28.979Z,16.30
2023-05-10T04:19:58.004Z,16.40
2023-05-10T04:22:26.552Z,16.40
2023-05-10T04:24:55.085Z,16.40
2023-05-10T04:27:23.551Z,16.40
2023-05-10T04:29:52.128Z,16.50
2023-05-10T04:32:21.563Z,16.50
2023-05-10T04:34:51.916Z,16.50
2023-05-10T04:37:23.984Z,16.60
2023-05-10T04:39:52.364Z,16.50
2023-05-10T04:42:20.808Z,16.50
2023-05-10T04:44:49.315Z,16.50
2023-05-10T04:47:17.753Z,16.50
2023-05-10T04:49:46.318Z,16.50
2023-05-10T04:52:18.436Z,16.50
2023-05-10T04:54:46.847Z,16.40
2023-05-10T04:57:15.258Z,16.50
2023-05-10T04:59:43.728Z,16.50
2023-05-10T05:02:12.155Z,16.50
2023-05-10T05:04:40.597Z,16.50
2023-05-10T05:07:09.028Z,16.50
2023-05-10T05:09:38.846Z,16.60
2023-05-10T05:12:07.497Z,16.60
2023-05-10T05:14:36.298Z,16.60
2023-05-10T05:17:04.954Z,16.60
2023-05-10T05:19:33.349Z,16.60
2023-05-10T05:22:01.740Z,16.60
2023-05-10T05:24:30.227Z,16.70
2023-05-10T05:27:00.030Z,16.70
2023-05-10T05:29:28.505Z,16.70
2023-05-10T05:31:57.017Z,16.80
2023-05-10T05:34:25.490Z,16.80
2023-05-10T05:36:53.877Z,16.90
2023-05-10T05:39:22.338Z,16.90
2023-05-10T05:41:50.794Z,17.00
2023-05-10T05:44:20.625Z,17.10
2023-05-10T05:46:49.072Z,17.20
2023-05-10T05:49:17.519Z,17.30
2023-05-10T05:51:46.160Z,17.30
2023-05-10T05:54:14.580Z,17.20
2023-05-10T05:56:43.021Z,17.30
2023-05-10T05:59:11.453Z,17.40
2023-05-10T06:01:41.330Z,17.50
2023-05-10T06:04:09.929Z,17.50
2023-05-10T06:06:38.362Z,17.50
2023-05-10T06:09:06.779Z,17.50
2023-05-10T06:11:35.175Z,17.40
2023-05-10T06:14:04.813Z,17.50
2023-05-10T06:16:33.277Z,17.50
2023-05-10T06:19:03.289Z,17.60
2023-05-10T06:21:32.270Z,17.60
2023-05-10T06:24:00.670Z,17.60
2023-05-10T06:26:29.118Z,17.70
2023-05-10T06:28:57.514Z,17.80
2023-05-10T06:31:26.015Z,17.70
2023-05-10T06:33:56.663Z,17.80
2023-05-10T06:36:27.518Z,17.90
2023-05-10T06:38:56.109Z,18.00
2023-05-10T06:41:25.005Z,18.20
2023-05-10T06:43:53.527Z,18.40
2023-05-10T06:46:22.033Z,18.50
2023-05-10T06:48:50.481Z,18.60
2023-05-10T06:51:19.071Z,18.70
2023-05-10T06:53:48.851Z,18.90
2023-05-10T06:56:17.309Z,18.90
2023-05-10T06:58:45.701Z,19.00
2023-05-10T07:01:14.211Z,19.00
2023-05-10T07:03:42.697Z,19.10
2023-05-10T07:06:21.748Z,19.30
2023-05-10T07:08:55.492Z,19.30
2023-05-10T07:11:23.943Z,19.30
2023-05-10T07:13:52.359Z,19.40
2023-05-10T07:16:20.877Z,19.50
2023-05-10T07:18:49.432Z,19.50
2023-05-10T07:21:17.976Z,19.70
2023-05-10T07:23:46.477Z,19.80
2023-05-10T07:26:57.074Z,19.90
2023-05-10T07:29:26.942Z,20.00
2023-05-10T07:31:57.933Z,20.10
2023-05-10T07:34:27.539Z,20.20
2023-05-10T07:36:56.251Z,20.40
2023-05-10T07:39:27.843Z,20.60
2023-05-10T07:41:57.460Z,20.80
2023-05-10T07:44:27.238Z,21.00
2023-05-10T07:46:56.677Z,21.20
2023-05-10T07:49:26.325Z,21.40
2023-05-10T07:51:54.701Z,21.60
2023-05-10T07:54:23.077Z,21.80
2023-05-10T07:56:51.479Z,21.70
2023-05-10T07:59:19.911Z,21.70
2023-05-10T08:01:49.712Z,21.60
2023-05-10T08:04:18.175Z,21.70
2023-05-10T08:06:46.694Z,22.00
2023-05-10T08:09:15.448Z,22.20
2023-05-10T08:11:43.899Z,22.30
2023-05-10T08:14:12.348Z,22.60
2023-05-10T08:16:40.796Z,22.70
2023-05-10T08:19:10.791Z,22.90
2023-05-10T08:21:39.317Z,23.00
2023-05-10T08:24:08.155Z,23.10
2023-05-10T08:26:36.586Z,23.00
2023-05-10T08:29:04.999Z,23.00
2023-05-10T08:31:33.454Z,23.10
2023-05-10T08:34:02.412Z,23.40
2023-05-10T08:36:33.154Z,23.40
2023-05-10T08:39:01.641Z,23.40
2023-05-10T08:41:30.689Z,23.30
2023-05-10T08:43:59.160Z,23.30
2023-05-10T08:46:29.309Z,23.20
2023-05-10T08:48:58.003Z,23.10
2023-05-10T08:51:27.861Z,23.20
2023-05-10T08:53:57.711Z,23.10
2023-05-10T08:56:26.255Z,23.00
2023-05-10T08:58:54.719Z,22.80
2023-05-10T09:01:23.552Z,22.70
2023-05-10T09:03:52.846Z,22.60
2023-05-10T09:06:21.386Z,22.50
2023-05-10T09:08:49.897Z,22.40
2023-05-10T09:11:19.920Z,22.30
2023-05-10T09:13:48.638Z,22.10
2023-05-10T09:16:21.834Z,22.20
2023-05-10T09:18:51.511Z,22.10
2023-05-10T09:21:21.371Z,22.10
2023-05-10T09:23:51.175Z,22.10
2023-05-10T09:26:24.092Z,22.10
2023-05-10T09:28:53.287Z,22.00
2023-05-10T09:31:21.814Z,22.00
2023-05-10T09:33:50.934Z,22.10
2023-05-10T09:36:19.427Z,22.10
2023-05-10T09:38:48.864Z,22.10
2023-05-10T09:41:26.083Z,22.10
2023-05-10T09:43:57.682Z,22.20
2023-05-10T09:46:26.158Z,22.20
2023-05-10T09:48:54.671Z,22.20
2023-05-10T09:51:23.210Z,22.30
2023-05-10T09:54:10.586Z,22.30
2023-05-10T09:56:41.723Z,22.40
2023-05-10T09:59:11.452Z,22.40
2023-05-10T10:01:40.251Z,22.50
2023-05-10T10:04:09.421Z,22.60
2023-05-10T10:06:39.118Z,22.70
2023-05-10T10:09:08.160Z,22.70
2023-05-10T10:11:37.340Z,22.70
2023-05-10T10:14:07.568Z,22.70
2023-05-10T10:16:36.048Z,22.70
2023-05-10T10:19:04.517Z,22.70
2023-05-10T10:21:33.686Z,22.80
2023-05-10T10:24:02.048Z,22.80
2023-05-10T10:26:31.552Z,22.70
2023-05-10T10:29:05.536Z,22.80
2023-05-10T10:31:39.819Z,22.70
2023-05-10T10:34:09.377Z,22.80
2023-05-10T10:36:42.726Z,22.80
2023-05-10T10:39:11.899Z,22.70
2023-05-10T10:41:44.941Z,22.70
2023-05-10T10:44:28.571Z,22.70
2023-05-10T10:47:19.677Z,22.70
2023-05-10T10:49:53.483Z,22.60
2023-05-10T10:52:27.871Z,22.70
2023-05-10T10:55:00.422Z,22.60
2023-05-10T10:57:31.154Z,22.60
2023-05-10T11:00:20.351Z,22.80
2023-05-10T11:02:50.328Z,22.90
2023-05-10T11:05:35.563Z,23.10
2023-05-10T11:08:09.241Z,23.00
2023-05-10T11:10:37.716Z,23.00
2023-05-10T11:13:06.976Z,23.00
2023-05-10T11:15:36.296Z,23.00
2023-05-10T11:18:18.940Z,23.10
2023-05-10T11:20:52.125Z,23.00
2023-05-10T11:23:22.141Z,23.00
2023-05-10T11:25:51.434Z,22.80
2023-05-10T11:28:20.962Z,22.70
2023-05-10T11:30:49.601Z,22.60
2023-05-10T11:33:18.986Z,22.60
2023-05-10T11:35:47.485Z,22.60
2023-05-10T11:38:17.318Z,22.60
2023-05-10T11:40:45.861Z,22.70
2023-05-10T11:43:14.365Z,22.60
2023-05-10T11:45:43.491Z,22.50
2023-05-10T11:48:11.990Z,22.60
2023-05-10T11:50:40.451Z,22.60
2023-05-10T11:53:08.864Z,22.70
2023-05-10T11:55:38.629Z,22.60
2023-05-10T11:58:07.008Z,22.70
2023-05-10T12:00:35.608Z,22.70
2023-05-10T12:03:04.286Z,22.50
2023-05-10T12:05:34.268Z,22.40
2023-05-10T12:08:15.163Z,22.40
2023-05-10T12:10:45.164Z,22.30
2023-05-10T12:13:15.157Z,22.10
2023-05-10T12:15:44.259Z,22.10
2023-05-10T12:18:12.886Z,21.90
2023-05-10T12:20:41.844Z,21.70
2023-05-10T12:23:11.110Z,21.60
2023-05-10T12:25:39.799Z,21.40
2023-05-10T12:28:10.609Z,21.20
2023-05-10T12:30:39.227Z,21.10
2023-05-10T12:33:10.701Z,21.10
2023-05-10T12:35:48.521Z,21.10
2023-05-10T12:38:30.640Z,20.90
2023-05-10T12:40:59.664Z,21.00
2023-05-10T12:43:29.711Z,21.00
2023-05-10T12:45:58.355Z,20.90
2023-05-10T12:48:26.938Z,20.90
2023-05-10T12:50:55.343Z,20.90
2023-05-10T12:53:23.809Z,20.80
2023-05-10T12:55:52.185Z,20.80
2023-05-10T12:58:34.886Z,20.80
2023-05-10T13:01:07.070Z,20.90
2023-05-10T13:03:35.463Z,20.90
2023-05-10T13:06:03.844Z,20.80
2023-05-10T13:08:34.668Z,20.80
2023-05-10T13:11:05.294Z,20.80
2023-05-10T13:13:33.756Z,20.80
2023-05-10T13:16:02.184Z,20.80
2023-05-10T13:18:32.052Z,20.70
2023-05-10T13:21:00.429Z,20.80
2023-05-10T13:23:28.858Z,20.80
2023-05-10T13:25:57.224Z,20.80
2023-05-10T13:28:27.294Z,20.80
2023-05-10T13:30:56.032Z,20.80
2023-05-10T13:33:24.401Z,20.80
2023-05-10T13:35:55.761Z,20.70
2023-05-10T13:38:24.399Z,20.70
2023-05-10T13:40:53.881Z,20.60
2023-05-10T13:43:22.512Z,20.60
2023-05-10T13:45:50.867Z,20.60
2023-05-10T13:48:19.325Z,20.50
2023-05-10T13:50:48.233Z,20.40
2023-05-10T13:53:18.276Z,20.40
2023-05-10T13:55:46.667Z,20.40
2023-05-10T13:58:15.034Z,20.40
2023-05-10T14:00:43.461Z,20.30
2023-05-10T14:03:12.299Z,20.20
2023-05-10T14:05:40.992Z,20.10
2023-05-10T14:08:10.432Z,20.10
2023-05-10T14:10:40.467Z,20.20
2023-05-10T14:13:09.001Z,20.10
2023-05-10T14:15:37.404Z,20.10
2023-05-10T14:18:05.815Z,20.10
2023-05-10T14:20:35.093Z,20.00
2023-05-10T14:23:03.716Z,19.90
2023-05-10T14:25:32.099Z,19.90
2023-05-10T14:28:01.966Z,19.90
2023-05-10T14:30:30.482Z,19.90
2023-05-10T14:32:59.569Z,19.80
2023-05-10T14:35:28.030Z,19.90
2023-05-10T14:37:56.478Z,19.90
2023-05-10T14:40:24.893Z,19.90
2023-05-10T14:42:53.938Z,19.90
2023-05-10T14:45:24.086Z,19.90
2023-05-10T14:47:52.626Z,19.90
2023-05-10T14:50:35.125Z,19.90
2023-05-10T14:53:04.841Z,19.90
2023-05-10T14:55:33.693Z,19.90
2023-05-10T14:58:02.800Z,19.90
2023-05-10T15:00:33.027Z,19.90
2023-05-10T15:03:02.021Z,19.80
2023-05-10T15:05:31.011Z,19.80
2023-05-10T15:07:59.898Z,19.80
2023-05-10T15:10:28.378Z,19.80
2023-05-10T15:12:56.725Z,19.80
2023-05-10T15:15:25.215Z,19.70
2023-05-10T15:17:55.081Z,19.70
2023-05-10T15:20:23.529Z,19.70
2023-05-10T15:22:51.923Z,19.60
2023-05-10T15:25:20.313Z,19.60
2023-05-10T15:27:48.727Z,19.60
2023-05-10T15:30:17.250Z,19.60
2023-05-10T15:32:45.753Z,19.60
2023-05-10T15:35:16.016Z,19.50
2023-05-10T15:37:44.509Z,19.50
2023-05-10T15:40:13.320Z,19.50
2023-05-10T15:42:41.702Z,19.60
2023-05-10T15:45:10.878Z,19.60
2023-05-10T15:47:40.490Z,19.60
2023-05-10T15:50:10.011Z,19.60
2023-05-10T15:52:39.931Z,19.60
2023-05-10T15:55:13.208Z,19.50
2023-05-10T15:57:42.637Z,19.50
2023-05-10T16:00:12.084Z,19.40
2023-05-10T16:02:40.749Z,19.40
2023-05-10T16:05:09.819Z,19.40
2023-05-10T16:07:40.284Z,19.30
2023-05-10T16:10:10.141Z,19.30
2023-05-10T16:12:39.048Z,19.40
2023-05-10T16:15:08.034Z,19.50
2023-05-10T16:17:37.470Z,19.50
2023-05-10T16:20:06.551Z,19.50
2023-05-10T16:22:35.040Z,19.50
2023-05-10T16:25:05.405Z,19.50
2023-05-10T16:27:33.842Z,19.40
2023-05-10T16:30:03.232Z,19.30
2023-05-10T16:32:31.695Z,19.40
2023-05-10T16:35:00.447Z,19.30
2023-05-10T16:37:29.204Z,19.30
2023-05-10T16:39:57.646Z,19.30
2023-05-10T16:42:28.223Z,19.20
2023-05-10T16:44:56.644Z,19.20
2023-05-10T16:47:27.016Z,19.20
2023-05-10T16:49:55.481Z,19.20
2023-05-10T16:52:23.974Z,19.10
2023-05-10T16:54:52.471Z,19.10
2023-05-10T16:57:20.947Z,19.00
2023-05-10T16:59:53.395Z,19.00
2023-05-10T17:02:22.270Z,19.00
2023-05-10T17:04:50.907Z,19.00
2023-05-10T17:07:19.442Z,19.00
2023-05-10T17:09:47.908Z,18.90
2023-05-10T17:12:16.314Z,18.90
2023-05-10T17:14:44.720Z,18.80
2023-05-10T17:17:14.553Z,18.90
2023-05-10T17:19:45.480Z,18.90
2023-05-10T17:22:14.109Z,18.80
2023-05-10T17:24:42.552Z,18.80
2023-05-10T17:27:11.324Z,18.70
2023-05-10T17:29:39.730Z,18.70
2023-05-10T17:32:09.143Z,18.60
2023-05-10T17:34:39.716Z,18.50
2023-05-10T17:37:09.452Z,18.50
2023-05-10T17:39:39.424Z,18.50
2023-05-10T17:42:08.534Z,18.50
2023-05-10T17:44:36.891Z,18.50
2023-05-10T17:47:06.378Z,18.50
2023-05-10T17:49:34.868Z,18.50
2023-05-10T17:52:04.773Z,18.40
2023-05-10T17:54:33.142Z,18.40
2023-05-10T17:57:02.172Z,18.40
2023-05-10T17:59:30.679Z,18.40
2023-05-10T18:01:59.097Z,18.40
2023-05-10T18:04:27.586Z,18.30
2023-05-10T18:07:01.286Z,18.40
2023-05-10T18:09:31.898Z,18.30
2023-05-10T18:12:00.798Z,18.30
2023-05-10T18:14:40.050Z,18.30
2023-05-10T18:17:09.630Z,18.30
2023-05-10T18:19:38.406Z,18.20
2023-05-10T18:22:08.927Z,18.20
2023-05-10T18:24:40.511Z,18.20
2023-05-10T18:27:09.159Z,18.20
2023-05-10T18:29:37.618Z,18.20
2023-05-10T18:32:06.347Z,18.20
2023-05-10T18:34:34.808Z,18.10
2023-05-10T18:37:07.362Z,18.10
2023-05-10T18:39:36.134Z,18.10
2023-05-10T18:42:06.608Z,18.10
2023-05-10T18:44:35.112Z,18.10
2023-05-10T18:47:03.556Z,18.20
2023-05-10T18:49:32.269Z,18.10
2023-05-10T18:52:00.779Z,18.20
2023-05-10T18:54:29.834Z,18.00
2023-05-10T18:56:58.932Z,18.00
2023-05-10T18:59:28.997Z,18.10
2023-05-10T19:01:57.740Z,18.00
2023-05-10T19:04:26.366Z,18.00
2023-05-10T19:06:56.129Z,18.10
2023-05-10T19:09:24.800Z,18.10
2023-05-10T19:11:53.204Z,18.00
2023-05-10T19:14:21.688Z,18.00
2023-05-10T19:16:53.513Z,17.90
2023-05-10T19:19:26.071Z,18.00
2023-05-10T19:21:55.728Z,18.00
2023-05-10T19:24:26.047Z,17.90
2023-05-10T19:26:56.475Z,17.90
2023-05-10T19:29:25.505Z,17.90
2023-05-10T19:31:55.519Z,17.90
2023-05-10T19:34:24.618Z,17.90
2023-05-10T19:36:53.812Z,17.90
2023-05-10T19:39:23.763Z,17.90
2023-05-10T19:41:53.430Z,17.90
2023-05-10T19:44:23.875Z,17.90
2023-05-10T19:46:53.386Z,17.90
2023-05-10T19:49:26.238Z,17.80
2023-05-10T19:51:56.009Z,17.80
2023-05-10T19:54:25.446Z,17.90
2023-05-10T19:56:53.878Z,17.80
2023-05-10T19:59:23.708Z,17.80
2023-05-10T20:01:52.087Z,17.80
2023-05-10T20:04:21.249Z,17.80
2023-05-10T20:06:51.003Z,17.70
2023-05-10T20:09:21.490Z,17.70
2023-05-10T20:11:51.079Z,17.70
2023-05-10T20:14:19.989Z,17.70
2023-05-10T20:16:49.824Z,17.70
2023-05-10T20:19:18.434Z,17.70
2023-05-10T20:21:47.602Z,17.60
2023-05-10T20:24:19.590Z,17.60
2023-05-10T20:26:48.191Z,17.60
2023-05-10T20:29:19.141Z,17.60
2023-05-10T20:31:48.469Z,17.50
2023-05-10T20:34:17.590Z,17.60
2023-05-10T20:36:46.249Z,17.60
2023-05-10T20:39:15.480Z,17.50
2023-05-10T20:41:45.344Z,17.50
2023-05-10T20:44:15.040Z,17.50
2023-05-10T20:46:43.600Z,17.50
2023-05-10T20:49:13.060Z,17.50
2023-05-10T20:51:42.000Z,17.50
2023-05-10T20:54:10.536Z,17.50
2023-05-10T20:56:39.179Z,17.50
2023-05-10T20:59:09.101Z,17.50
2023-05-10T21:01:37.525Z,17.50
2023-05-10T21:04:05.966Z,17.40
2023-05-10T21:06:34.371Z,17.40
2023-05-10T21:09:02.821Z,17.40
2023-05-10T21:11:31.315Z,17.30
2023-05-10T21:13:59.717Z,17.30
2023-05-10T21:16:29.538Z,17.40
2023-05-10T21:18:57.938Z,17.40
2023-05-10T21:21:26.422Z,17.40
2023-05-10T21:23:54.873Z,17.40
2023-05-10T21:26:23.361Z,17.40
2023-05-10T21:28:51.796Z,17.40
2023-05-10T21:31:20.275Z,17.30
2023-05-10T21:33:50.140Z,17.40
2023-05-10T21:36:18.560Z,17.30
2023-05-10T21:38:47.681Z,17.20
2023-05-10T21:41:16.040Z,17.20
2023-05-10T21:43:44.644Z,17.20
2023-05-10T21:46:14.352Z,17.20
2023-05-10T21:48:42.919Z,17.20
2023-05-10T21:51:12.767Z,17.20
2023-05-10T21:53:41.247Z,17.10
2023-05-10T21:56:09.733Z,17.10
2023-05-10T21:58:38.123Z,17.10
2023-05-10T22:01:06.693Z,17.20
2023-05-10T22:03:35.098Z,17.20
2023-05-10T22:06:03.482Z,17.20
2023-05-10T22:08:33.241Z,17.10
2023-05-10T22:11:01.714Z,17.10
2023-05-10T22:13:30.213Z,17.10
2023-05-10T22:15:58.609Z,17.00
2023-05-10T22:18:27.167Z,17.00
2023-05-10T22:20:55.696Z,16.90
2023-05-10T22:23:24.170Z,16.90
2023-05-10T22:25:53.992Z,16.90
2023-05-10T22:28:22.561Z,16.90
2023-05-10T22:30:51.001Z,16.90
2023-05-10T22:33:19.815Z,16.90
2023-05-10T22:35:48.232Z,16.90
2023-05-10T22:38:16.681Z,16.90
2023-05-10T22:40:45.066Z,16.90
2023-05-10T22:43:14.897Z,17.00
2023-05-10T22:45:43.358Z,17.00
2023-05-10T22:48:11.915Z,17.00
2023-05-10T22:50:40.453Z,17.00
2023-05-10T22:53:08.832Z,17.00
2023-05-10T22:55:37.284Z,17.00
2023-05-10T22:58:05.835Z,17.00
2023-05-10T23:00:35.863Z,17.00
2023-05-10T23:03:04.388Z,17.00
2023-05-10T23:05:32.789Z,17.00
2023-05-10T23:08:01.533Z,17.00
2023-05-10T23:10:29.964Z,17.10
2023-05-10T23:12:58.426Z,17.10
2023-05-10T23:15:27.008Z,17.10
2023-05-10T23:17:56.875Z,17.10
2023-05-10T23:20:25.340Z,17.00
2023-05-10T23:22:53.868Z,17.00
2023-05-10T23:25:22.343Z,17.00
2023-05-10T23:27:50.793Z,17.00
2023-05-10T23:30:19.419Z,17.00
2023-05-10T23:32:47.927Z,17.00
2023-05-10T23:35:17.984Z,17.00
2023-05-10T23:37:46.388Z,16.90
2023-05-10T23:40:15.599Z,17.00
2023-05-10T23:42:44.073Z,17.00
2023-05-10T23:45:12.828Z,16.90
2023-05-10T23:47:41.473Z,17.00
2023-05-10T23:50:10.553Z,17.00
2023-05-10T23:52:40.328Z,17.00
2023-05-10T23:55:09.424Z,16.90
2023-05-10T23:57:37.915Z,17.00
